sensor_id;sensor_type;location;lat;lon;timestamp;pressure;altitude;pressure_sealevel;temperature;humidity
17855;BME280;9053;53.358;6.382;2023-01-30T00:02:23;101166.13;;;7.45;100.00
17855;BME280;9053;53.358;6.382;2023-01-30T00:04:53;101148.78;;;7.47;100.00
17855;BME280;9053;53.358;6.382;2023-01-30T00:07:23;101135.63;;;7.46;100.00
17855;BME280;9053;53.358;6.382;2023-01-30T00:09:55;101125.25;;;7.47;100.00
17855;BME280;9053;53.358;6.382;2023-01-30T00:12:25;101126.13;;;7.48;100.00
17855;BME280;9053;53.358;6.382;2023-01-30T00:14:55;101139.38;;;7.51;100.00
17855;BME280;9053;53.358;6.382;2023-01-30T00:17:25;101121.00;;;7.49;100.00
17855;BME280;9053;53.358;6.382;2023-01-30T00:19:55;101123.59;;;7.49;100.00
17855;BME280;9053;53.358;6.382;2023-01-30T00:22:24;101123.50;;;7.48;100.00
17855;BME280;9053;53.358;6.382;2023-01-30T00:24:57;101124.34;;;7.47;100.00
17855;BME280;9053;53.358;6.382;2023-01-30T00:27:28;101117.31;;;7.46;100.00
17855;BME280;9053;53.358;6.382;2023-01-30T00:29:58;101108.50;;;7.44;100.00
17855;BME280;9053;53.358;6.382;2023-01-30T00:32:30;101110.94;;;7.41;100.00
17855;BME280;9053;53.358;6.382;2023-01-30T00:35:00;101106.53;;;7.40;100.00
17855;BME280;9053;53.358;6.382;2023-01-30T00:37:30;101104.66;;;7.37;100.00
17855;BME280;9053;53.358;6.382;2023-01-30T00:40:03;101110.78;;;7.37;100.00
17855;BME280;9053;53.358;6.382;2023-01-30T00:42:32;101093.22;;;7.35;100.00
17855;BME280;9053;53.358;6.382;2023-01-30T00:45:15;101082.69;;;7.33;100.00
17855;BME280;9053;53.358;6.382;2023-01-30T00:47:58;101091.28;;;7.31;100.00
17855;BME280;9053;53.358;6.382;2023-01-30T00:50:28;101098.22;;;7.30;100.00
17855;BME280;9053;53.358;6.382;2023-01-30T00:53:09;101074.59;;;7.29;100.00
17855;BME280;9053;53.358;6.382;2023-01-30T00:55:41;101083.44;;;7.31;100.00
17855;BME280;9053;53.358;6.382;2023-01-30T00:58:12;101077.28;;;7.30;100.00
17855;BME280;9053;53.358;6.382;2023-01-30T01:00:42;101068.47;;;7.28;100.00
17855;BME280;9053;53.358;6.382;2023-01-30T01:03:12;101056.19;;;7.27;100.00
17855;BME280;9053;53.358;6.382;2023-01-30T01:05:43;101062.28;;;7.26;100.00
17855;BME280;9053;53.358;6.382;2023-01-30T01:08:13;101054.41;;;7.26;100.00
17855;BME280;9053;53.358;6.382;2023-01-30T01:10:45;101050.00;;;7.25;100.00
17855;BME280;9053;53.358;6.382;2023-01-30T01:13:15;101047.47;;;7.27;100.00
17855;BME280;9053;53.358;6.382;2023-01-30T01:15:45;101055.31;;;7.27;100.00
17855;BME280;9053;53.358;6.382;2023-01-30T01:18:15;101043.22;;;7.29;100.00
17855;BME280;9053;53.358;6.382;2023-01-30T01:20:45;101044.09;;;7.29;100.00
17855;BME280;9053;53.358;6.382;2023-01-30T01:23:15;101050.22;;;7.30;100.00
17855;BME280;9053;53.358;6.382;2023-01-30T01:25:47;101041.56;;;7.31;100.00
17855;BME280;9053;53.358;6.382;2023-01-30T01:28:17;101045.88;;;7.30;100.00
17855;BME280;9053;53.358;6.382;2023-01-30T01:30:47;101046.88;;;7.32;100.00
17855;BME280;9053;53.358;6.382;2023-01-30T01:33:17;101033.78;;;7.32;100.00
17855;BME280;9053;53.358;6.382;2023-01-30T01:35:47;101036.34;;;7.31;100.00
17855;BME280;9053;53.358;6.382;2023-01-30T01:38:17;101030.28;;;7.32;100.00
17855;BME280;9053;53.358;6.382;2023-01-30T01:40:49;101047.84;;;7.34;100.00
17855;BME280;9053;53.358;6.382;2023-01-30T01:43:31;101038.38;;;7.36;100.00
17855;BME280;9053;53.358;6.382;2023-01-30T01:46:06;101030.56;;;7.38;100.00
17855;BME280;9053;53.358;6.382;2023-01-30T01:48:41;101028.88;;;7.39;100.00
17855;BME280;9053;53.358;6.382;2023-01-30T01:51:16;101032.28;;;7.37;100.00
17855;BME280;9053;53.358;6.382;2023-01-30T01:53:50;101020.09;;;7.38;100.00
17855;BME280;9053;53.358;6.382;2023-01-30T01:56:26;101032.28;;;7.37;100.00
17855;BME280;9053;53.358;6.382;2023-01-30T01:59:01;101025.41;;;7.40;100.00
17855;BME280;9053;53.358;6.382;2023-01-30T02:01:32;101015.84;;;7.40;100.00
17855;BME280;9053;53.358;6.382;2023-01-30T02:04:03;101018.56;;;7.42;100.00
17855;BME280;9053;53.358;6.382;2023-01-30T02:06:36;101030.81;;;7.43;100.00
17855;BME280;9053;53.358;6.382;2023-01-30T02:09:07;101035.22;;;7.44;100.00
17855;BME280;9053;53.358;6.382;2023-01-30T02:11:45;101040.59;;;7.47;100.00
17855;BME280;9053;53.358;6.382;2023-01-30T02:14:17;101025.72;;;7.46;100.00
17855;BME280;9053;53.358;6.382;2023-01-30T02:16:48;101017.94;;;7.47;100.00
17855;BME280;9053;53.358;6.382;2023-01-30T02:19:24;101026.03;;;7.52;100.00
17855;BME280;9053;53.358;6.382;2023-01-30T02:22:13;101005.97;;;7.52;100.00
17855;BME280;9053;53.358;6.382;2023-01-30T02:25:11;101013.91;;;7.54;100.00
17855;BME280;9053;53.358;6.382;2023-01-30T02:28:08;101017.44;;;7.54;100.00
17855;BME280;9053;53.358;6.382;2023-01-30T02:31:09;101005.22;;;7.55;100.00
17855;BME280;9053;53.358;6.382;2023-01-30T02:33:53;101008.81;;;7.57;100.00
17855;BME280;9053;53.358;6.382;2023-01-30T02:36:29;101007.19;;;7.59;100.00
17855;BME280;9053;53.358;6.382;2023-01-30T02:39:12;100998.63;;;7.63;100.00
17855;BME280;9053;53.358;6.382;2023-01-30T02:41:53;100982.13;;;7.64;100.00
17855;BME280;9053;53.358;6.382;2023-01-30T02:44:33;100996.09;;;7.65;100.00
17855;BME280;9053;53.358;6.382;2023-01-30T02:47:10;100997.84;;;7.64;100.00
17855;BME280;9053;53.358;6.382;2023-01-30T02:49:46;100994.38;;;7.65;100.00
17855;BME280;9053;53.358;6.382;2023-01-30T02:52:18;100998.72;;;7.65;100.00
17855;BME280;9053;53.358;6.382;2023-01-30T02:54:49;100986.53;;;7.65;100.00
17855;BME280;9053;53.358;6.382;2023-01-30T02:57:21;100978.63;;;7.64;100.00
17855;BME280;9053;53.358;6.382;2023-01-30T02:59:53;100985.56;;;7.63;100.00
17855;BME280;9053;53.358;6.382;2023-01-30T03:02:42;100984.59;;;7.61;100.00
17855;BME280;9053;53.358;6.382;2023-01-30T03:05:32;100977.56;;;7.60;100.00
17855;BME280;9053;53.358;6.382;2023-01-30T03:08:12;100978.31;;;7.57;100.00
17855;BME280;9053;53.358;6.382;2023-01-30T03:10:52;100967.78;;;7.56;100.00
17855;BME280;9053;53.358;6.382;2023-01-30T03:13:31;100970.31;;;7.54;100.00
17855;BME280;9053;53.358;6.382;2023-01-30T03:16:07;100983.25;;;7.51;100.00
17855;BME280;9053;53.358;6.382;2023-01-30T03:18:42;100984.97;;;7.51;100.00
17855;BME280;9053;53.358;6.382;2023-01-30T03:21:13;100983.03;;;7.47;100.00
17855;BME280;9053;53.358;6.382;2023-01-30T03:23:44;100989.81;;;7.43;100.00
17855;BME280;9053;53.358;6.382;2023-01-30T03:26:17;100993.19;;;7.41;100.00
17855;BME280;9053;53.358;6.382;2023-01-30T03:28:49;100987.00;;;7.39;100.00
17855;BME280;9053;53.358;6.382;2023-01-30T03:31:19;101007.94;;;7.39;100.00
17855;BME280;9053;53.358;6.382;2023-01-30T03:33:52;100996.50;;;7.36;100.00
17855;BME280;9053;53.358;6.382;2023-01-30T03:36:22;100997.25;;;7.34;100.00
17855;BME280;9053;53.358;6.382;2023-01-30T03:38:52;100999.78;;;7.32;100.00
17855;BME280;9053;53.358;6.382;2023-01-30T03:41:22;101019.91;;;7.33;100.00
17855;BME280;9053;53.358;6.382;2023-01-30T03:43:52;101006.72;;;7.32;100.00
17855;BME280;9053;53.358;6.382;2023-01-30T03:46:22;101014.50;;;7.30;100.00
17855;BME280;9053;53.358;6.382;2023-01-30T03:48:55;101017.94;;;7.29;100.00
17855;BME280;9053;53.358;6.382;2023-01-30T03:51:25;101014.34;;;7.27;100.00
17855;BME280;9053;53.358;6.382;2023-01-30T03:53:54;101015.97;;;7.25;100.00
17855;BME280;9053;53.358;6.382;2023-01-30T03:56:24;101015.03;;;7.23;100.00
17855;BME280;9053;53.358;6.382;2023-01-30T03:58:54;101005.22;;;7.19;100.00
17855;BME280;9053;53.358;6.382;2023-01-30T04:01:24;101023.44;;;7.18;100.00
17855;BME280;9053;53.358;6.382;2023-01-30T04:03:56;101021.53;;;7.13;100.00
17855;BME280;9053;53.358;6.382;2023-01-30T04:06:26;101015.22;;;7.10;100.00
17855;BME280;9053;53.358;6.382;2023-01-30T04:08:56;101016.78;;;7.06;100.00
17855;BME280;9053;53.358;6.382;2023-01-30T04:11:26;101018.50;;;7.06;100.00
17855;BME280;9053;53.358;6.382;2023-01-30T04:13:55;101002.66;;;7.03;100.00
17855;BME280;9053;53.358;6.382;2023-01-30T04:16:26;101015.72;;;7.03;100.00
17855;BME280;9053;53.358;6.382;2023-01-30T04:18:58;101006.84;;;6.99;100.00
17855;BME280;9053;53.358;6.382;2023-01-30T04:21:28;101009.34;;;6.98;100.00
17855;BME280;9053;53.358;6.382;2023-01-30T04:23:58;101010.09;;;6.95;100.00
17855;BME280;9053;53.358;6.382;2023-01-30T04:26:28;101011.03;;;6.96;100.00
17855;BME280;9053;53.358;6.382;2023-01-30T04:28:58;101009.22;;;6.94;100.00
17855;BME280;9053;53.358;6.382;2023-01-30T04:31:28;101003.75;;;6.90;100.00
17855;BME280;9053;53.358;6.382;2023-01-30T04:34:00;101012.50;;;6.90;100.00
17855;BME280;9053;53.358;6.382;2023-01-30T04:36:30;101007.19;;;6.89;100.00
17855;BME280;9053;53.358;6.382;2023-01-30T04:39:00;101014.19;;;6.90;100.00
17855;BME280;9053;53.358;6.382;2023-01-30T04:41:30;101014.19;;;6.90;100.00
17855;BME280;9053;53.358;6.382;2023-01-30T04:43:59;101007.19;;;6.89;100.00
17855;BME280;9053;53.358;6.382;2023-01-30T04:46:29;101015.91;;;6.89;100.00
17855;BME280;9053;53.358;6.382;2023-01-30T04:49:02;101029.72;;;6.87;100.00
17855;BME280;9053;53.358;6.382;2023-01-30T04:51:32;101003.44;;;6.84;100.00
17855;BME280;9053;53.358;6.382;2023-01-30T04:54:02;101011.28;;;6.84;100.00
17855;BME280;9053;53.358;6.382;2023-01-30T04:56:32;101012.09;;;6.83;100.00
17855;BME280;9053;53.358;6.382;2023-01-30T04:59:02;101014.53;;;6.80;100.00
17855;BME280;9053;53.358;6.382;2023-01-30T05:01:33;101025.09;;;6.81;100.00
17855;BME280;9053;53.358;6.382;2023-01-30T05:04:07;101017.25;;;6.81;100.00
17855;BME280;9053;53.358;6.382;2023-01-30T05:06:37;101017.25;;;6.81;100.00
17855;BME280;9053;53.358;6.382;2023-01-30T05:09:07;101018.88;;;6.79;100.00
17855;BME280;9053;53.358;6.382;2023-01-30T05:11:37;101016.28;;;6.79;100.00
17855;BME280;9053;53.358;6.382;2023-01-30T05:14:06;101021.41;;;6.78;100.00
17855;BME280;9053;53.358;6.382;2023-01-30T05:16:36;101023.13;;;6.77;100.00
17855;BME280;9053;53.358;6.382;2023-01-30T05:19:09;101028.44;;;6.79;100.00
17855;BME280;9053;53.358;6.382;2023-01-30T05:21:41;101033.59;;;6.77;100.00
17855;BME280;9053;53.358;6.382;2023-01-30T05:24:10;101044.03;;;6.77;100.00
17855;BME280;9053;53.358;6.382;2023-01-30T05:26:40;101044.88;;;6.76;100.00
17855;BME280;9053;53.358;6.382;2023-01-30T05:29:10;101030.97;;;6.77;100.00
17855;BME280;9053;53.358;6.382;2023-01-30T05:31:40;101028.34;;;6.77;100.00
17855;BME280;9053;53.358;6.382;2023-01-30T05:34:13;101023.13;;;6.77;100.00
17855;BME280;9053;53.358;6.382;2023-01-30T05:36:43;101026.56;;;6.76;100.00
17855;BME280;9053;53.358;6.382;2023-01-30T05:39:12;101016.03;;;6.75;100.00
17855;BME280;9053;53.358;6.382;2023-01-30T05:41:42;101026.47;;;6.75;100.00
17855;BME280;9053;53.358;6.382;2023-01-30T05:44:12;101024.69;;;6.74;100.00
17855;BME280;9053;53.358;6.382;2023-01-30T05:46:42;101024.75;;;6.75;100.00
17855;BME280;9053;53.358;6.382;2023-01-30T05:49:15;101034.41;;;6.76;100.00
17855;BME280;9053;53.358;6.382;2023-01-30T05:51:45;101031.06;;;6.79;100.00
17855;BME280;9053;53.358;6.382;2023-01-30T05:54:17;101033.59;;;6.77;100.00
17855;BME280;9053;53.358;6.382;2023-01-30T05:56:48;101032.69;;;6.77;100.00
17855;BME280;9053;53.358;6.382;2023-01-30T05:59:19;101022.16;;;6.75;100.00
17855;BME280;9053;53.358;6.382;2023-01-30T06:01:49;101021.34;;;6.76;100.00
17855;BME280;9053;53.358;6.382;2023-01-30T06:04:21;101014.53;;;6.80;100.00
17855;BME280;9053;53.358;6.382;2023-01-30T06:06:51;101025.16;;;6.83;100.00
17855;BME280;9053;53.358;6.382;2023-01-30T06:09:21;101020.84;;;6.83;100.00
17855;BME280;9053;53.358;6.382;2023-01-30T06:11:51;101023.47;;;6.83;100.00
17855;BME280;9053;53.358;6.382;2023-01-30T06:14:21;101007.84;;;6.85;100.00
17855;BME280;9053;53.358;6.382;2023-01-30T06:16:51;101020.13;;;6.86;100.00
17855;BME280;9053;53.358;6.382;2023-01-30T06:19:24;101023.72;;;6.88;100.00
17855;BME280;9053;53.358;6.382;2023-01-30T06:21:53;101020.03;;;6.84;100.00
17855;BME280;9053;53.358;6.382;2023-01-30T06:24:23;101024.34;;;6.84;100.00
17855;BME280;9053;53.358;6.382;2023-01-30T06:26:53;101025.25;;;6.84;100.00
17855;BME280;9053;53.358;6.382;2023-01-30T06:29:23;101027.94;;;6.86;100.00
17855;BME280;9053;53.358;6.382;2023-01-30T06:31:53;101017.56;;;6.87;100.00
17855;BME280;9053;53.358;6.382;2023-01-30T06:34:25;101019.44;;;6.90;100.00
17855;BME280;9053;53.358;6.382;2023-01-30T06:36:55;101019.44;;;6.90;100.00
17855;BME280;9053;53.358;6.382;2023-01-30T06:39:25;101018.53;;;6.89;100.00
17855;BME280;9053;53.358;6.382;2023-01-30T06:41:55;101022.03;;;6.90;100.00
17855;BME280;9053;53.358;6.382;2023-01-30T06:44:25;101016.00;;;6.91;100.00
17855;BME280;9053;53.358;6.382;2023-01-30T06:46:55;101013.41;;;6.91;100.00
17855;BME280;9053;53.358;6.382;2023-01-30T06:49:27;101015.19;;;6.92;100.00
17855;BME280;9053;53.358;6.382;2023-01-30T06:51:57;101025.63;;;6.92;100.00
17855;BME280;9053;53.358;6.382;2023-01-30T06:54:27;101033.47;;;6.92;100.00
17855;BME280;9053;53.358;6.382;2023-01-30T06:56:57;101036.94;;;6.91;100.00
17855;BME280;9053;53.358;6.382;2023-01-30T06:59:27;101037.81;;;6.91;100.00
17855;BME280;9053;53.358;6.382;2023-01-30T07:01:56;101042.22;;;6.92;100.00
17855;BME280;9053;53.358;6.382;2023-01-30T07:04:29;101036.03;;;6.90;100.00
17855;BME280;9053;53.358;6.382;2023-01-30T07:07:00;101049.13;;;6.90;100.00
17855;BME280;9053;53.358;6.382;2023-01-30T07:09:32;101052.47;;;6.88;100.00
17855;BME280;9053;53.358;6.382;2023-01-30T07:12:03;101048.19;;;6.90;100.00
17855;BME280;9053;53.358;6.382;2023-01-30T07:14:32;101057.91;;;6.92;100.00
17855;BME280;9053;53.358;6.382;2023-01-30T07:17:02;101056.28;;;6.94;100.00
17855;BME280;9053;53.358;6.382;2023-01-30T07:19:35;101060.72;;;6.96;100.00
17855;BME280;9053;53.358;6.382;2023-01-30T07:22:05;101057.16;;;6.95;100.00
17855;BME280;9053;53.358;6.382;2023-01-30T07:24:35;101056.38;;;6.96;100.00
17855;BME280;9053;53.358;6.382;2023-01-30T07:27:05;101056.44;;;6.98;100.00
17855;BME280;9053;53.358;6.382;2023-01-30T07:29:36;101067.81;;;6.98;100.00
17855;BME280;9053;53.358;6.382;2023-01-30T07:32:07;101056.63;;;7.01;100.00
17855;BME280;9053;53.358;6.382;2023-01-30T07:34:43;101060.91;;;7.00;100.00
17855;BME280;9053;53.358;6.382;2023-01-30T07:37:13;101068.84;;;7.02;100.00
17855;BME280;9053;53.358;6.382;2023-01-30T07:39:43;101062.88;;;7.04;100.00
17855;BME280;9053;53.358;6.382;2023-01-30T07:42:13;101056.91;;;7.07;100.00
17855;BME280;9053;53.358;6.382;2023-01-30T07:44:43;101042.09;;;7.07;100.00
17855;BME280;9053;53.358;6.382;2023-01-30T07:47:13;101060.34;;;7.06;100.00
17855;BME280;9053;53.358;6.382;2023-01-30T07:49:47;101059.53;;;7.07;100.00
17855;BME280;9053;53.358;6.382;2023-01-30T07:52:17;101057.00;;;7.08;100.00
17855;BME280;9053;53.358;6.382;2023-01-30T07:54:47;101046.59;;;7.10;100.00
17855;BME280;9053;53.358;6.382;2023-01-30T07:57:18;101057.06;;;7.10;100.00
17855;BME280;9053;53.358;6.382;2023-01-30T07:59:48;101057.16;;;7.11;100.00
17855;BME280;9053;53.358;6.382;2023-01-30T08:02:18;101052.81;;;7.12;100.00
17855;BME280;9053;53.358;6.382;2023-01-30T08:04:50;101059.91;;;7.14;100.00
17855;BME280;9053;53.358;6.382;2023-01-30T08:07:20;101059.03;;;7.14;100.00
17855;BME280;9053;53.358;6.382;2023-01-30T08:09:50;101053.06;;;7.17;100.00
17855;BME280;9053;53.358;6.382;2023-01-30T08:12:20;101074.88;;;7.17;100.00
17855;BME280;9053;53.358;6.382;2023-01-30T08:14:49;101066.13;;;7.17;100.00
17855;BME280;9053;53.358;6.382;2023-01-30T08:17:19;101072.34;;;7.19;100.00
17855;BME280;9053;53.358;6.382;2023-01-30T08:19:52;101076.84;;;7.21;100.00
17855;BME280;9053;53.358;6.382;2023-01-30T08:22:21;101070.75;;;7.22;100.00
17855;BME280;9053;53.358;6.382;2023-01-30T08:24:51;101065.38;;;7.19;100.00
17855;BME280;9053;53.358;6.382;2023-01-30T08:27:21;101061.13;;;7.21;100.00
17855;BME280;9053;53.358;6.382;2023-01-30T08:29:51;101079.50;;;7.23;100.00
17855;BME280;9053;53.358;6.382;2023-01-30T08:32:21;101057.84;;;7.25;100.00
17855;BME280;9053;53.358;6.382;2023-01-30T08:34:53;101056.06;;;7.24;100.00
17855;BME280;9053;53.358;6.382;2023-01-30T08:37:23;101060.53;;;7.27;100.00
17855;BME280;9053;53.358;6.382;2023-01-30T08:39:52;101064.88;;;7.26;100.00
17855;BME280;9053;53.358;6.382;2023-01-30T08:42:22;101041.41;;;7.28;100.00
17855;BME280;9053;53.358;6.382;2023-01-30T08:44:52;101050.22;;;7.30;100.00
17855;BME280;9053;53.358;6.382;2023-01-30T08:47:22;101038.03;;;7.30;100.00
17855;BME280;9053;53.358;6.382;2023-01-30T08:49:54;101050.47;;;7.34;100.00
17855;BME280;9053;53.358;6.382;2023-01-30T08:52:24;101053.00;;;7.33;100.00
17855;BME280;9053;53.358;6.382;2023-01-30T08:54:54;101046.22;;;7.36;100.00
17855;BME280;9053;53.358;6.382;2023-01-30T08:57:24;101059.28;;;7.36;100.00
17855;BME280;9053;53.358;6.382;2023-01-30T08:59:53;101070.56;;;7.35;100.00
17855;BME280;9053;53.358;6.382;2023-01-30T09:02:23;101054.94;;;7.37;100.00
17855;BME280;9053;53.358;6.382;2023-01-30T09:04:56;101054.94;;;7.37;100.00
17855;BME280;9053;53.358;6.382;2023-01-30T09:07:25;101060.28;;;7.39;100.00
17855;BME280;9053;53.358;6.382;2023-01-30T09:09:56;101062.06;;;7.40;100.00
17855;BME280;9053;53.358;6.382;2023-01-30T09:12:26;101058.59;;;7.41;100.00
17855;BME280;9053;53.358;6.382;2023-01-30T09:14:55;101051.72;;;7.43;100.00
17855;BME280;9053;53.358;6.382;2023-01-30T09:17:26;101064.91;;;7.44;100.00
17855;BME280;9053;53.358;6.382;2023-01-30T09:19:58;101071.91;;;7.45;100.00
17855;BME280;9053;53.358;6.382;2023-01-30T09:22:28;101056.22;;;7.45;100.00
17855;BME280;9053;53.358;6.382;2023-01-30T09:24:58;101064.16;;;7.47;100.00
17855;BME280;9053;53.358;6.382;2023-01-30T09:27:28;101074.69;;;7.48;100.00
17855;BME280;9053;53.358;6.382;2023-01-30T09:29:57;101055.56;;;7.49;100.00
17855;BME280;9053;53.358;6.382;2023-01-30T09:32:27;101056.44;;;7.50;100.00
17855;BME280;9053;53.358;6.382;2023-01-30T09:34:59;101059.06;;;7.50;100.00
17855;BME280;9053;53.358;6.382;2023-01-30T09:37:29;101061.91;;;7.54;100.00
17855;BME280;9053;53.358;6.382;2023-01-30T09:39:59;101059.41;;;7.56;100.00
17855;BME280;9053;53.358;6.382;2023-01-30T09:42:49;101059.44;;;7.57;100.00
17855;BME280;9053;53.358;6.382;2023-01-30T09:48:23;101057.91;;;7.61;100.00
17855;BME280;9053;53.358;6.382;2023-01-30T09:51:15;101059.16;;;7.69;100.00
17855;BME280;9053;53.358;6.382;2023-01-30T09:54:03;101057.44;;;7.70;100.00
17855;BME280;9053;53.358;6.382;2023-01-30T09:56:36;101064.31;;;7.68;100.00
17855;BME280;9053;53.358;6.382;2023-01-30T09:59:06;101086.16;;;7.68;100.00
17855;BME280;9053;53.358;6.382;2023-01-30T10:01:50;101076.66;;;7.70;100.00
17855;BME280;9053;53.358;6.382;2023-01-30T10:04:24;101081.22;;;7.74;100.00
17855;BME280;9053;53.358;6.382;2023-01-30T10:07:05;101076.22;;;7.79;99.90
17855;BME280;9053;53.358;6.382;2023-01-30T10:09:41;101081.75;;;7.85;99.85
17855;BME280;9053;53.358;6.382;2023-01-30T10:12:27;101143.94;;;7.89;99.79
17855;BME280;9053;53.358;6.382;2023-01-30T10:21:10;101128.47;;;7.25;99.05
17855;BME280;9053;53.358;6.382;2023-01-30T10:23:59;101128.50;;;7.09;98.84
17855;BME280;9053;53.358;6.382;2023-01-30T10:26:33;101135.78;;;6.98;98.81
17855;BME280;9053;53.358;6.382;2023-01-30T10:29:06;101147.63;;;6.91;98.62
17855;BME280;9053;53.358;6.382;2023-01-30T10:31:43;101151.72;;;6.86;98.59
17855;BME280;9053;53.358;6.382;2023-01-30T10:34:18;101145.34;;;6.81;98.54
17855;BME280;9053;53.358;6.382;2023-01-30T10:36:53;101144.19;;;6.76;98.53
17855;BME280;9053;53.358;6.382;2023-01-30T10:39:34;101138.97;;;6.76;98.48
17855;BME280;9053;53.358;6.382;2023-01-30T10:42:24;101162.09;;;6.85;98.60
17855;BME280;9053;53.358;6.382;2023-01-30T10:45:01;101150.09;;;6.88;98.54
17855;BME280;9053;53.358;6.382;2023-01-30T10:47:55;101156.38;;;6.92;98.83
17855;BME280;9053;53.358;6.382;2023-01-30T10:50:39;101147.88;;;6.96;98.86
17855;BME280;9053;53.358;6.382;2023-01-30T10:53:16;101169.06;;;7.01;99.00
17855;BME280;9053;53.358;6.382;2023-01-30T10:55:59;101141.44;;;7.06;99.03
17855;BME280;9053;53.358;6.382;2023-01-30T10:58:37;101145.97;;;7.10;99.24
17855;BME280;9053;53.358;6.382;2023-01-30T11:01:14;101145.34;;;7.14;99.41
17855;BME280;9053;53.358;6.382;2023-01-30T11:03:49;101153.69;;;7.23;99.53
17855;BME280;9053;53.358;6.382;2023-01-30T11:06:22;101153.97;;;7.29;99.63
17855;BME280;9053;53.358;6.382;2023-01-30T11:08:54;101161.34;;;7.36;99.79
17855;BME280;9053;53.358;6.382;2023-01-30T11:11:29;101159.84;;;7.42;99.77
17855;BME280;9053;53.358;6.382;2023-01-30T11:14:04;101176.00;;;7.51;99.90
17855;BME280;9053;53.358;6.382;2023-01-30T11:16:41;101173.63;;;7.55;99.98
17855;BME280;9053;53.358;6.382;2023-01-30T11:19:13;101183.59;;;7.63;100.00
17855;BME280;9053;53.358;6.382;2023-01-30T11:21:49;101177.78;;;7.68;100.00
17855;BME280;9053;53.358;6.382;2023-01-30T11:24:22;101186.69;;;7.72;100.00
17855;BME280;9053;53.358;6.382;2023-01-30T11:27:08;101191.34;;;7.77;100.00
17855;BME280;9053;53.358;6.382;2023-01-30T11:29:38;101218.50;;;7.79;100.00
17855;BME280;9053;53.358;6.382;2023-01-30T11:32:12;101215.13;;;7.82;99.89
17855;BME280;9053;53.358;6.382;2023-01-30T11:34:43;101217.16;;;7.88;99.87
17855;BME280;9053;53.358;6.382;2023-01-30T11:37:22;101229.44;;;7.89;99.62
17855;BME280;9053;53.358;6.382;2023-01-30T11:39:55;101240.13;;;7.93;99.47
17855;BME280;9053;53.358;6.382;2023-01-30T11:42:29;101236.63;;;7.93;99.35
17855;BME280;9053;53.358;6.382;2023-01-30T11:45:00;101253.22;;;7.93;99.15
17855;BME280;9053;53.358;6.382;2023-01-30T11:47:49;101248.09;;;7.95;99.09
17855;BME280;9053;53.358;6.382;2023-01-30T11:50:29;101258.25;;;7.89;98.78
17855;BME280;9053;53.358;6.382;2023-01-30T11:53:14;101259.91;;;7.87;98.77
17855;BME280;9053;53.358;6.382;2023-01-30T11:55:45;101262.50;;;7.87;98.58
17855;BME280;9053;53.358;6.382;2023-01-30T11:58:33;101260.88;;;7.89;98.49
17855;BME280;9053;53.358;6.382;2023-01-30T12:01:04;101265.44;;;7.93;98.52
17855;BME280;9053;53.358;6.382;2023-01-30T12:03:44;101267.56;;;8.00;98.52
17855;BME280;9053;53.358;6.382;2023-01-30T12:06:23;101273.19;;;8.08;98.60
17855;BME280;9053;53.358;6.382;2023-01-30T12:08:54;101274.06;;;8.08;98.50
17855;BME280;9053;53.358;6.382;2023-01-30T12:11:27;101268.19;;;8.12;98.62
17855;BME280;9053;53.358;6.382;2023-01-30T12:14:20;101267.56;;;8.18;98.67
17855;BME280;9053;53.358;6.382;2023-01-30T12:17:01;101266.81;;;8.20;98.65
17855;BME280;9053;53.358;6.382;2023-01-30T12:19:43;101281.81;;;8.23;98.59
17855;BME280;9053;53.358;6.382;2023-01-30T12:22:27;101276.56;;;8.23;98.61
17855;BME280;9053;53.358;6.382;2023-01-30T12:25:02;101273.06;;;8.22;98.59
17855;BME280;9053;53.358;6.382;2023-01-30T12:27:48;101278.53;;;8.27;98.61
17855;BME280;9053;53.358;6.382;2023-01-30T12:30:33;101281.06;;;8.26;98.54
17855;BME280;9053;53.358;6.382;2023-01-30T12:33:12;101272.41;;;8.27;98.53
17855;BME280;9053;53.358;6.382;2023-01-30T12:35:52;101275.81;;;8.26;98.44
17855;BME280;9053;53.358;6.382;2023-01-30T12:38:34;101286.31;;;8.26;98.54
17855;BME280;9053;53.358;6.382;2023-01-30T12:41:19;101283.78;;;8.27;98.42
17855;BME280;9053;53.358;6.382;2023-01-30T12:44:02;101278.53;;;8.27;98.46
17855;BME280;9053;53.358;6.382;2023-01-30T12:46:49;101303.84;;;8.27;98.42
17855;BME280;9053;53.358;6.382;2023-01-30T12:49:33;101294.09;;;8.24;98.38
17855;BME280;9053;53.358;6.382;2023-01-30T12:52:25;101280.91;;;8.22;98.31
17855;BME280;9053;53.358;6.382;2023-01-30T12:55:03;101310.47;;;8.20;98.30
17855;BME280;9053;53.358;6.382;2023-01-30T12:57:41;101305.16;;;8.18;98.28
17855;BME280;9053;53.358;6.382;2023-01-30T13:00:27;101306.97;;;8.19;98.31
17855;BME280;9053;53.358;6.382;2023-01-30T13:03:17;101316.38;;;8.16;98.21
17855;BME280;9053;53.358;6.382;2023-01-30T13:05:51;101314.50;;;8.13;98.27
17855;BME280;9053;53.358;6.382;2023-01-30T13:08:36;101317.13;;;8.13;98.26
17855;BME280;9053;53.358;6.382;2023-01-30T13:11:20;101323.19;;;8.12;98.32
17855;BME280;9053;53.358;6.382;2023-01-30T13:14:00;101324.19;;;8.14;98.37
17855;BME280;9053;53.358;6.382;2023-01-30T13:16:39;101322.69;;;8.19;98.49
17855;BME280;9053;53.358;6.382;2023-01-30T13:19:20;101334.16;;;8.21;98.49
17855;BME280;9053;53.358;6.382;2023-01-30T13:22:09;101334.22;;;8.23;98.62
17855;BME280;9053;53.358;6.382;2023-01-30T13:24:52;101314.97;;;8.22;98.73
17855;BME280;9053;53.358;6.382;2023-01-30T13:27:26;101343.81;;;8.22;98.79
17855;BME280;9053;53.358;6.382;2023-01-30T13:30:05;101349.88;;;8.21;98.70
17855;BME280;9053;53.358;6.382;2023-01-30T13:32:39;101349.78;;;8.20;98.77
17855;BME280;9053;53.358;6.382;2023-01-30T13:35:18;101361.16;;;8.20;98.90
17855;BME280;9053;53.358;6.382;2023-01-30T13:37:50;101351.41;;;8.18;98.92
17855;BME280;9053;53.358;6.382;2023-01-30T13:40:23;101359.19;;;8.16;99.00
17855;BME280;9053;53.358;6.382;2023-01-30T13:42:58;101362.50;;;8.12;98.98
17855;BME280;9053;53.358;6.382;2023-01-30T13:45:31;101374.91;;;8.16;99.06
17855;BME280;9053;53.358;6.382;2023-01-30T13:48:13;101376.81;;;8.19;99.19